New Richmond, WI

1:31 AM CST on December 11, 2016 (GMT -0600)
New Richmond Municipal | | Change Station
Active Advisory: Winter Weather Advisory

Elev 997 ft 45.15 °N, 92.53 °W | Updated 16 minutes ago

Light Snow
Light Snow
14 °F
Feels Like 0 °F
N
10
Wind Variable Wind from East
Gusts 16 mph

Today
High -- | Low -- °F
--% Chance of Precip.
Yesterday
High -- | Low -- °F
Precip. -- in
Pressure 30.11 in
Visibility 4.0 miles
Clouds Overcast 1600 ft
Windchill 0 °F
Dew Point 9 °F
Humidity 83%
Rainfall 0.00 in
Snow Depth Not available.
7:39 AM 4:28 PM
Waxing Gibbous, 89% visible
METAR KRNH 110715Z AUTO 10009G14KT 4SM -SN OVC016 M10/M13 A3011 RMK AO2 T11031127
Pressure 30.11 in
Visibility 4.0 miles
Clouds Overcast 1600 ft
Windchill 0 °F
Dew Point 9 °F
Humidity 83%
Rainfall 0.00 in
Snow Depth Not available.
7:39 AM 4:28 PM
Waxing Gibbous, 89% visible
METAR KRNH 110715Z AUTO 10009G14KT 4SM -SN OVC016 M10/M13 A3011 RMK AO2 T11031127

10-Day Weather Forecast

Almanac

Astronomy

Dec. 11, 2016 Rise Set
Actual Time
Civil Twilight
Nautical Twilight
Astronomical Twilight
Moon
Length of Visible Light
Length of Day
Tomorrow will be .
, % of the Moon is Illuminated

Today's Extremes

State Highs State Lows

Community

WunderPhotos

Upload Photos

1,956,707 photos uploaded!

WunderBlog® & News

Nearby

Air Quality

  Air Quality AQ Index Pollutant
Not available.

Snow Depth

Station Depth Elevation

Earthquake Activity

City Distance Mag. Time & Date
Minimum magnitude displayed is 2.5.

Coastal Water Temperatures

Place Temperature

Stations

Nearby Weather Stations

Station Location Temp. Windchill Dew Point Humidity Wind Precip. Elev Updated Type
                   

Watches & Warnings

Winter Weather Advisory
Issued: 11:12 PM CST Dec. 10, 2016 – National Weather Service

... Winter Weather Advisory remains in effect until 9 PM CST
Sunday...

* expect snow to continue... diminishing around 9 PM Sunday.

* Additional snow accumulations of 3 to 6 inches are expected.

* Look for reduced visibilities at times.

* Plan on difficult driving conditions.

Precautionary/preparedness actions...

A Winter Weather Advisory for snow means periods of snow will
cause primarily travel difficulties. Be prepared for snow covered
roads and limited visibilities... and use caution while driving.
The latest Road conditions for the state you are calling from can
be obtained by calling 5 1 1.